Diplomat, Indiana
Current Conditions -  °F | °C
As of 12:54 PM on Monday 22 Dec 2014 (Local Time) from KFWA Reporting Station
Haze Haze  
Wind Chill: 29°   Ceiling: 10000
Heat Index: 35°   Visibility: 6mi
Dew Point: 30°   Wind: 8mph
Humidity: 82%   Direction: 80°E
Pressure: 29.91"   Gusts: NA
Location:  41.0028°N, 85.0396°W
Report Text: KFWA 221754Z 08007KT 6SM HZ FEW070 OVC100 02/M01 A2991 RMK AO2 SLP138 T00171011 10017 21050 58026
Loading
Personal Weather Stations






























Interactive Weather Map New forecast layout! Learn more

10-Day Weather Forecast

Advertisements
Track Severe Weather on mobile